Time;durP1;ratioP1;P1;durP2;ratioP2;P2;SDS_P1;SDS_P2;PMS_P1;PMS_P2;Temp;Humidity;BMP_temperature;BMP_pressure;BME280_temperature;BME280_humidity;BME280_pressure;Samples;Min_cycle;Max_cycle;Signal;HPM_P1;HPM_P2
2021/08/26 00:00:35;;;;;;;5.78;4.70;;;24.10;96.60;;;;;;5053298;28;20210;-73
2021/08/26 00:05:48;;;;;;;8.30;5.47;;;24.10;96.90;;;;;;5059534;28;21080;-72
2021/08/26 00:08:19;;;;;;;10.05;5.50;;;24.10;96.90;;;;;;5058965;28;20688;-73
2021/08/26 00:10:48;;;;;;;5.90;5.00;;;24.10;97.10;;;;;;5053931;28;20313;-75
2021/08/26 00:13:15;;;;;;;8.35;4.88;;;24.10;96.90;;;;;;5052473;28;20199;-72
2021/08/26 00:15:46;;;;;;;6.47;5.07;;;24.10;97.00;;;;;;5056491;28;20675;-72
2021/08/26 00:18:15;;;;;;;6.35;5.10;;;24.10;96.60;;;;;;5058438;28;20270;-71
2021/08/26 00:20:47;;;;;;;8.90;4.70;;;24.10;96.80;;;;;;5060419;28;20195;-73
2021/08/26 00:23:13;;;;;;;10.32;5.20;;;24.10;96.60;;;;;;5058501;28;20203;-72
2021/08/26 00:25:40;;;;;;;6.23;5.00;;;24.10;96.80;;;;;;5060180;28;20182;-73
2021/08/26 00:28:06;;;;;;;7.88;5.32;;;24.20;97.20;;;;;;5057259;28;20187;-74
2021/08/26 00:30:33;;;;;;;9.93;5.60;;;24.20;96.60;;;;;;5059552;28;20217;-71
2021/08/26 00:32:59;;;;;;;9.60;5.57;;;24.10;96.40;;;;;;5060711;28;20188;-74
2021/08/26 00:35:25;;;;;;;7.55;5.63;;;24.10;96.50;;;;;;5063307;28;20194;-72
2021/08/26 00:37:52;;;;;;;7.57;5.25;;;24.20;97.20;;;;;;5056658;28;20189;-73
2021/08/26 00:40:18;;;;;;;9.77;5.60;;;24.20;96.40;;;;;;5060261;28;20281;-73
2021/08/26 00:42:45;;;;;;;5.97;4.80;;;24.20;96.20;;;;;;5055375;28;20224;-73
2021/08/26 00:45:12;;;;;;;8.32;5.25;;;24.20;96.20;;;;;;5057988;28;20261;-73
2021/08/26 00:47:43;;;;;;;12.70;5.37;;;24.20;96.20;;;;;;5064233;28;20857;-72
2021/08/26 00:50:10;;;;;;;9.83;5.30;;;24.30;96.30;;;;;;5060571;28;20647;-71
2021/08/26 00:52:39;;;;;;;12.07;5.83;;;24.20;96.00;;;;;;5047277;28;20263;-71
2021/08/26 00:55:07;;;;;;;8.97;5.47;;;24.20;96.30;;;;;;5039520;28;20237;-72
2021/08/26 00:57:36;;;;;;;6.97;5.07;;;24.20;96.30;;;;;;5058338;28;20183;-73
2021/08/26 01:00:12;;;;;;;7.93;5.07;;;24.20;96.20;;;;;;5058812;28;20205;-71
2021/08/26 01:03:10;;;;;;;9.73;5.60;;;24.30;96.40;;;;;;5059738;28;20193;-72
2021/08/26 01:05:55;;;;;;;14.50;5.10;;;24.30;96.10;;;;;;5062164;28;20687;-73
2021/08/26 01:08:31;;;;;;;10.35;5.07;;;24.20;95.90;;;;;;5059321;28;20802;-73
2021/08/26 01:10:59;;;;;;;10.05;5.07;;;24.20;95.90;;;;;;5058846;28;20213;-73
2021/08/26 01:13:41;;;;;;;7.77;5.17;;;24.10;95.80;;;;;;5051778;28;20203;-73
2021/08/26 01:16:15;;;;;;;9.55;5.70;;;24.00;96.00;;;;;;5045808;28;20936;-73
2021/08/26 01:18:47;;;;;;;7.30;5.30;;;24.00;96.00;;;;;;5061660;28;20190;-73
2021/08/26 01:21:20;;;;;;;9.63;5.22;;;24.00;96.10;;;;;;5057285;28;20192;-72
2021/08/26 01:23:54;;;;;;;8.98;5.47;;;24.00;96.00;;;;;;5059472;28;20198;-72
2021/08/26 01:26:41;;;;;;;11.43;5.10;;;23.90;96.00;;;;;;5059683;28;20237;-73
2021/08/26 01:29:10;;;;;;;10.88;5.50;;;24.00;95.90;;;;;;5062402;28;20621;-73
2021/08/26 01:31:39;;;;;;;9.30;5.50;;;24.00;96.00;;;;;;5058625;28;20206;-74
2021/08/26 01:34:07;;;;;;;11.37;5.53;;;24.00;96.00;;;;;;5042760;28;20317;-73
2021/08/26 01:36:35;;;;;;;11.20;5.20;;;23.90;96.00;;;;;;5060667;28;20270;-72
2021/08/26 01:39:10;;;;;;;11.00;5.50;;;23.90;96.10;;;;;;5062294;28;20186;-72
2021/08/26 01:41:52;;;;;;;10.73;5.07;;;24.00;96.10;;;;;;5063785;28;20321;-72
2021/08/26 01:44:29;;;;;;;8.27;4.87;;;23.90;95.90;;;;;;5051112;28;21107;-71
2021/08/26 01:47:21;;;;;;;5.88;4.93;;;23.90;96.00;;;;;;5060563;28;20594;-73
2021/08/26 01:49:48;;;;;;;6.77;4.90;;;24.00;96.20;;;;;;5057321;28;20961;-72
2021/08/26 01:52:20;;;;;;;9.68;5.47;;;24.00;95.90;;;;;;5056828;28;20245;-74
2021/08/26 01:55:02;;;;;;;8.38;5.30;;;24.00;96.00;;;;;;5057749;28;20994;-72
2021/08/26 01:57:30;;;;;;;6.00;5.27;;;23.90;95.90;;;;;;5060101;28;20663;-75
2021/08/26 02:00:03;;;;;;;7.43;5.30;;;23.80;96.00;;;;;;5056091;28;20919;-74
2021/08/26 02:02:30;;;;;;;9.55;5.60;;;23.80;96.00;;;;;;5061723;28;20202;-75
2021/08/26 02:04:56;;;;;;;10.88;5.78;;;23.80;96.10;;;;;;5063366;28;20195;-73
2021/08/26 02:07:22;;;;;;;7.53;5.45;;;23.80;96.10;;;;;;5047846;28;20187;-75
2021/08/26 02:09:48;;;;;;;9.77;5.43;;;23.80;95.80;;;;;;5062333;28;20206;-73
2021/08/26 02:12:15;;;;;;;13.33;5.67;;;23.80;95.90;;;;;;5061358;28;20211;-73
2021/08/26 02:14:41;;;;;;;6.15;5.22;;;23.80;96.10;;;;;;5054731;28;20226;-73
2021/08/26 02:17:08;;;;;;;11.52;5.20;;;23.80;95.80;;;;;;5055998;28;20861;-75
2021/08/26 02:19:34;;;;;;;7.70;5.27;;;23.70;95.90;;;;;;5063284;28;20221;-73
2021/08/26 02:22:01;;;;;;;11.07;5.95;;;23.70;96.00;;;;;;5058786;28;20193;-74
2021/08/26 02:24:27;;;;;;;17.73;6.33;;;23.70;95.90;;;;;;5063449;28;20199;-73
2021/08/26 02:26:54;;;;;;;15.43;5.53;;;23.60;96.20;;;;;;5062398;28;20282;-74
2021/08/26 02:29:20;;;;;;;12.67;6.30;;;23.50;96.10;;;;;;5062300;28;20266;-73
2021/08/26 02:31:46;;;;;;;11.38;5.65;;;23.50;96.20;;;;;;5046858;28;20269;-73
2021/08/26 02:34:14;;;;;;;9.67;5.30;;;23.50;96.40;;;;;;5045594;28;20528;-72
2021/08/26 02:36:40;;;;;;;7.72;5.13;;;23.50;96.30;;;;;;5058545;28;20273;-73
2021/08/26 02:39:08;;;;;;;7.10;5.35;;;23.50;96.40;;;;;;5060542;28;20175;-75
2021/08/26 02:41:37;;;;;;;11.95;5.45;;;23.50;96.40;;;;;;5062024;28;20192;-75
2021/08/26 02:44:04;;;;;;;8.17;5.13;;;23.50;96.40;;;;;;5061120;28;20179;-73
2021/08/26 02:46:30;;;;;;;12.13;5.43;;;23.40;96.30;;;;;;5034483;28;20681;-75
2021/08/26 02:48:57;;;;;;;12.50;5.90;;;23.40;96.40;;;;;;5061451;28;20222;-74
2021/08/26 02:51:23;;;;;;;9.75;5.80;;;23.40;96.30;;;;;;5060189;28;20219;-73
2021/08/26 02:53:49;;;;;;;14.40;5.80;;;23.30;96.10;;;;;;5064476;28;20187;-73
2021/08/26 02:56:16;;;;;;;13.90;5.03;;;23.30;96.10;;;;;;5054402;28;20198;-72
2021/08/26 02:58:42;;;;;;;10.20;5.27;;;23.30;96.00;;;;;;5044952;28;20186;-73
2021/08/26 03:01:08;;;;;;;11.63;5.00;;;23.40;96.30;;;;;;5062656;28;20194;-75
2021/08/26 03:03:35;;;;;;;13.03;5.30;;;23.40;96.50;;;;;;5063232;28;20198;-76
2021/08/26 03:06:01;;;;;;;10.23;5.37;;;23.40;96.20;;;;;;5057231;28;20188;-74
2021/08/26 03:08:30;;;;;;;8.83;5.83;;;23.40;96.20;;;;;;5057537;28;20231;-75
2021/08/26 03:10:57;;;;;;;9.50;5.13;;;23.40;96.30;;;;;;5061580;28;20764;-76
2021/08/26 03:13:23;;;;;;;8.53;5.23;;;23.40;96.20;;;;;;5045593;28;20183;-76
2021/08/26 03:15:49;;;;;;;9.10;5.03;;;23.40;96.40;;;;;;5041348;28;20187;-75
2021/08/26 03:18:16;;;;;;;8.20;5.00;;;23.40;96.90;;;;;;5054231;28;20217;-72
2021/08/26 03:20:42;;;;;;;6.33;4.90;;;23.50;97.20;;;;;;5059039;28;20209;-71
2021/08/26 03:23:09;;;;;;;7.97;5.37;;;23.50;97.00;;;;;;5060063;28;20198;-71
2021/08/26 03:25:36;;;;;;;8.43;4.80;;;23.50;97.00;;;;;;5060675;28;20264;-73
2021/08/26 03:28:02;;;;;;;6.37;4.90;;;23.60;97.50;;;;;;5058633;28;20691;-73
2021/08/26 03:30:29;;;;;;;9.27;5.33;;;23.70;97.50;;;;;;5063254;28;20213;-70
2021/08/26 03:32:55;;;;;;;6.77;5.00;;;23.70;97.50;;;;;;5058579;28;20246;-72
2021/08/26 03:35:22;;;;;;;14.67;5.27;;;23.70;97.60;;;;;;5075618;28;20228;-72
2021/08/26 03:37:49;;;;;;;8.67;5.53;;;23.70;97.30;;;;;;5043879;28;20272;-73
2021/08/26 03:40:16;;;;;;;9.47;5.43;;;23.70;97.00;;;;;;5060650;28;20183;-71
2021/08/26 03:42:42;;;;;;;6.30;5.30;;;23.70;96.90;;;;;;5059399;28;20279;-72
2021/08/26 03:45:10;;;;;;;8.43;6.00;;;23.80;97.00;;;;;;5058490;28;20830;-71
2021/08/26 03:47:36;;;;;;;12.07;5.13;;;23.80;97.30;;;;;;5073260;28;20198;-72
2021/08/26 03:50:03;;;;;;;5.77;4.53;;;23.90;96.70;;;;;;5056564;28;20221;-74
2021/08/26 03:52:29;;;;;;;7.43;5.43;;;23.90;96.90;;;;;;5060126;28;20260;-70
2021/08/26 03:54:55;;;;;;;5.97;4.87;;;23.90;96.60;;;;;;5040247;28;20242;-71
2021/08/26 03:57:22;;;;;;;11.47;5.43;;;23.90;96.90;;;;;;5074536;28;20198;-73
2021/08/26 03:59:48;;;;;;;8.67;5.17;;;24.00;97.40;;;;;;5056621;28;20194;-71
2021/08/26 04:02:14;;;;;;;11.40;5.30;;;24.00;97.40;;;;;;5043971;28;20651;-72
2021/08/26 04:04:41;;;;;;;11.07;5.40;;;23.90;97.20;;;;;;5077112;28;20639;-72
2021/08/26 04:07:07;;;;;;;12.20;6.38;;;23.80;97.10;;;;;;5061522;28;20190;-73
2021/08/26 04:09:33;;;;;;;9.87;5.57;;;23.80;97.00;;;;;;5066018;28;20187;-71
2021/08/26 04:12:00;;;;;;;9.27;5.63;;;23.70;97.20;;;;;;5049653;28;20597;-71
2021/08/26 04:14:26;;;;;;;8.65;5.22;;;23.60;97.30;;;;;;5064267;28;20198;-71
2021/08/26 04:16:52;;;;;;;7.03;5.30;;;23.60;97.60;;;;;;5047603;28;20186;-71
2021/08/26 04:19:19;;;;;;;11.03;5.33;;;23.70;97.50;;;;;;5056196;28;20180;-72
2021/08/26 04:21:45;;;;;;;9.30;5.73;;;23.70;97.30;;;;;;5055274;28;20188;-73
2021/08/26 04:24:11;;;;;;;7.17;5.00;;;23.70;97.40;;;;;;5059669;28;20191;-74
2021/08/26 04:26:38;;;;;;;9.63;5.30;;;23.80;97.60;;;;;;5062283;28;20194;-73
2021/08/26 04:29:04;;;;;;;8.90;6.37;;;23.80;97.80;;;;;;5044782;28;20187;-73
2021/08/26 04:31:30;;;;;;;7.17;5.20;;;23.80;97.90;;;;;;5047678;28;20619;-76
2021/08/26 04:33:57;;;;;;;11.73;5.20;;;23.80;98.00;;;;;;5062012;28;21125;-77
2021/08/26 04:36:23;;;;;;;10.10;5.70;;;23.80;98.20;;;;;;5044935;28;20193;-72
2021/08/26 04:38:50;;;;;;;6.78;5.50;;;23.80;98.40;;;;;;5067602;28;20273;-71
2021/08/26 04:41:16;;;;;;;10.00;5.07;;;23.80;98.50;;;;;;5047077;28;20187;-74
2021/08/26 04:43:43;;;;;;;8.00;5.30;;;23.90;97.90;;;;;;5060721;28;20190;-73
2021/08/26 04:46:09;;;;;;;24.02;5.75;;;24.00;98.50;;;;;;5046461;28;20222;-72
2021/08/26 04:48:36;;;;;;;9.73;5.38;;;24.10;98.40;;;;;;5058478;28;20188;-73
2021/08/26 04:51:02;;;;;;;7.15;5.10;;;24.10;98.30;;;;;;5052271;28;20217;-75
2021/08/26 04:53:29;;;;;;;10.05;5.55;;;24.20;98.30;;;;;;5062928;28;20171;-72
2021/08/26 04:55:55;;;;;;;6.75;5.20;;;24.20;98.40;;;;;;5062306;28;20536;-71
2021/08/26 04:58:21;;;;;;;8.93;5.22;;;24.30;98.60;;;;;;5062063;28;20184;-72
2021/08/26 05:00:48;;;;;;;10.67;5.10;;;24.30;98.90;;;;;;5047949;28;20210;-71
2021/08/26 05:03:14;;;;;;;36.63;7.68;;;24.30;99.10;;;;;;5046240;28;20201;-74
2021/08/26 05:05:41;;;;;;;49.22;8.48;;;24.40;99.20;;;;;;5061687;28;20213;-73
2021/08/26 05:08:07;;;;;;;40.53;6.63;;;24.40;99.30;;;;;;5048422;28;20182;-73
2021/08/26 05:10:33;;;;;;;16.88;6.07;;;24.40;99.50;;;;;;5041592;28;20215;-75
2021/08/26 05:13:00;;;;;;;11.30;5.10;;;24.50;99.80;;;;;;5065381;28;20196;-75
2021/08/26 05:15:26;;;;;;;12.18;5.40;;;24.50;99.90;;;;;;5043356;28;20276;-75
2021/08/26 05:17:53;;;;;;;13.48;5.38;;;24.60;99.90;;;;;;5080569;28;20829;-74
2021/08/26 05:20:19;;;;;;;12.57;5.40;;;24.60;99.90;;;;;;5043365;28;20279;-73
2021/08/26 05:22:46;;;;;;;7.45;5.30;;;24.70;99.90;;;;;;5054053;28;20281;-74
2021/08/26 05:25:12;;;;;;;11.23;5.40;;;24.70;99.90;;;;;;5045284;28;20190;-76
2021/08/26 05:27:38;;;;;;;13.50;5.38;;;24.70;99.70;;;;;;5047540;28;20191;-75
2021/08/26 05:30:06;;;;;;;7.70;5.25;;;24.80;99.90;;;;;;5063570;28;20282;-74
2021/08/26 05:32:33;;;;;;;7.38;5.53;;;24.90;99.90;;;;;;5062497;28;20199;-75
2021/08/26 05:35:00;;;;;;;6.45;4.90;;;24.90;99.90;;;;;;5048643;28;20219;-74
2021/08/26 05:37:27;;;;;;;8.90;5.38;;;24.90;99.60;;;;;;5059730;28;20238;-74
2021/08/26 05:39:53;;;;;;;12.63;5.47;;;24.90;99.60;;;;;;5064884;28;20688;-74
2021/08/26 05:42:20;;;;;;;10.35;5.00;;;25.00;99.90;;;;;;5044652;28;20191;-74
2021/08/26 05:44:46;;;;;;;8.10;5.38;;;25.10;99.90;;;;;;5062657;28;20224;-75
2021/08/26 05:47:12;;;;;;;11.53;5.90;;;25.10;99.90;;;;;;5043327;28;20663;-75
2021/08/26 05:49:40;;;;;;;8.73;5.55;;;25.20;99.90;;;;;;5044569;28;20210;-75
2021/08/26 05:52:06;;;;;;;9.68;5.57;;;25.20;99.90;;;;;;5055275;28;20219;-74
2021/08/26 05:54:32;;;;;;;13.70;5.32;;;25.30;99.90;;;;;;5063119;28;20187;-75
2021/08/26 05:56:59;;;;;;;8.55;5.45;;;25.30;99.90;;;;;;5062365;28;20183;-77
2021/08/26 05:59:26;;;;;;;8.68;5.80;;;25.30;99.90;;;;;;5062848;28;20211;-76
2021/08/26 06:01:53;;;;;;;10.23;5.65;;;25.30;99.90;;;;;;5042484;28;20853;-74
2021/08/26 06:04:19;;;;;;;12.48;5.80;;;25.50;99.90;;;;;;5062010;28;20194;-77
2021/08/26 06:06:46;;;;;;;10.52;6.13;;;25.60;99.90;;;;;;5061418;28;20236;-74
2021/08/26 06:09:13;;;;;;;7.95;5.53;;;25.60;99.90;;;;;;5062553;28;20840;-73
2021/08/26 06:11:42;;;;;;;13.18;6.05;;;25.60;99.90;;;;;;5061793;28;20689;-75
2021/08/26 06:14:09;;;;;;;12.48;5.90;;;25.60;99.90;;;;;;5059502;28;20184;-73
2021/08/26 06:16:36;;;;;;;8.43;5.72;;;25.80;99.90;;;;;;5066739;28;20175;-73
2021/08/26 06:19:03;;;;;;;9.40;5.55;;;25.90;99.90;;;;;;5045111;28;20265;-74
2021/08/26 06:21:29;;;;;;;10.52;5.97;;;25.90;99.90;;;;;;5042497;28;22763;-73
2021/08/26 06:23:58;;;;;;;10.05;5.38;;;25.90;99.90;;;;;;5055888;28;20282;-73
2021/08/26 06:26:25;;;;;;;5.70;5.05;;;25.90;99.90;;;;;;5041657;28;20208;-74
2021/08/26 06:28:52;;;;;;;10.65;5.63;;;25.90;99.90;;;;;;5057181;28;20187;-76
2021/08/26 06:31:18;;;;;;;8.07;5.35;;;25.90;99.90;;;;;;5041975;28;20298;-74
2021/08/26 06:33:45;;;;;;;9.38;5.40;;;25.90;99.90;;;;;;5048400;28;20732;-75
2021/08/26 06:36:11;;;;;;;10.00;5.05;;;26.00;99.90;;;;;;5060853;28;20218;-76
2021/08/26 06:38:40;;;;;;;8.52;5.65;;;26.20;98.20;;;;;;5064840;28;20191;-75
2021/08/26 06:41:09;;;;;;;7.13;5.40;;;26.10;99.20;;;;;;5042467;28;20658;-77
2021/08/26 06:43:36;;;;;;;6.80;5.07;;;26.10;98.90;;;;;;5063243;28;20556;-75
2021/08/26 06:46:02;;;;;;;9.70;4.75;;;26.10;99.20;;;;;;5044339;28;20186;-73
2021/08/26 06:48:29;;;;;;;8.35;5.18;;;26.20;98.50;;;;;;5043127;28;20195;-74
2021/08/26 06:50:55;;;;;;;10.23;5.15;;;26.50;97.30;;;;;;5059082;28;20206;-74
2021/08/26 06:53:21;;;;;;;8.85;4.50;;;26.60;96.70;;;;;;5055964;28;20218;-77
2021/08/26 06:55:48;;;;;;;7.95;5.13;;;26.60;96.80;;;;;;5058892;28;20222;-73
2021/08/26 06:58:14;;;;;;;7.78;5.03;;;26.60;97.80;;;;;;5058403;28;20932;-74
2021/08/26 07:00:40;;;;;;;11.07;4.80;;;26.70;97.20;;;;;;5063217;28;20198;-74
2021/08/26 07:03:07;;;;;;;12.35;4.97;;;26.80;96.60;;;;;;5076613;28;20245;-74
2021/08/26 07:05:33;;;;;;;11.63;4.68;;;26.90;95.00;;;;;;5062011;28;20648;-75
2021/08/26 07:07:59;;;;;;;8.40;4.68;;;27.00;95.90;;;;;;5045178;28;20271;-72
2021/08/26 07:10:26;;;;;;;10.05;5.13;;;27.20;95.80;;;;;;5047038;28;20184;-74
2021/08/26 07:12:55;;;;;;;14.32;5.55;;;27.20;96.20;;;;;;5059754;28;20221;-74
2021/08/26 07:15:24;;;;;;;11.18;5.30;;;27.30;95.90;;;;;;5062766;28;20270;-73
2021/08/26 07:17:53;;;;;;;7.03;5.10;;;27.30;96.30;;;;;;5049093;28;20187;-75
2021/08/26 07:20:20;;;;;;;15.50;5.70;;;27.30;96.20;;;;;;5058513;28;20218;-75
2021/08/26 07:22:47;;;;;;;9.85;5.68;;;27.70;95.70;;;;;;5059089;28;20197;-74
2021/08/26 07:25:13;;;;;;;17.42;5.97;;;27.90;95.90;;;;;;5050037;28;20195;-75
2021/08/26 07:27:39;;;;;;;17.98;6.32;;;28.00;95.90;;;;;;5058390;28;20191;-74
2021/08/26 07:30:06;;;;;;;13.50;6.70;;;28.10;96.60;;;;;;5061078;28;20186;-75
2021/08/26 07:32:33;;;;;;;10.70;6.47;;;28.30;99.40;;;;;;5045474;28;20260;-74
2021/08/26 07:35:00;;;;;;;10.75;6.80;;;28.40;99.90;;;;;;5060974;28;20606;-77
2021/08/26 07:37:27;;;;;;;15.88;8.43;;;28.70;99.90;;;;;;5062094;28;20325;-73
2021/08/26 07:39:57;;;;;;;20.90;8.38;;;29.00;99.90;;;;;;5061187;28;20721;-76
2021/08/26 07:42:23;;;;;;;14.55;7.60;;;29.20;99.90;;;;;;5043764;28;20186;-74
2021/08/26 07:44:49;;;;;;;16.05;7.82;;;29.20;99.90;;;;;;5061788;28;20183;-75
2021/08/26 07:47:16;;;;;;;10.95;5.93;;;29.30;99.90;;;;;;5058705;28;20199;-74
2021/08/26 07:49:42;;;;;;;13.88;5.80;;;29.30;99.90;;;;;;5060173;28;20222;-73
2021/08/26 07:52:11;;;;;;;13.07;6.50;;;29.30;99.90;;;;;;5060414;28;20219;-76
2021/08/26 07:54:37;;;;;;;16.60;6.57;;;29.30;99.90;;;;;;5056763;28;20544;-74
2021/08/26 07:57:04;;;;;;;13.55;6.10;;;29.30;99.90;;;;;;5054384;28;20182;-72
2021/08/26 07:59:31;;;;;;;11.73;5.80;;;29.40;99.90;;;;;;5059436;28;20677;-74
2021/08/26 08:01:57;;;;;;;14.85;6.38;;;29.40;99.90;;;;;;5058512;28;20198;-71
2021/08/26 08:04:25;;;;;;;10.65;6.43;;;29.40;99.90;;;;;;5059446;28;20620;-74
2021/08/26 08:06:52;;;;;;;13.07;6.65;;;29.50;99.90;;;;;;5042028;28;20274;-74
2021/08/26 08:09:18;;;;;;;10.27;6.43;;;29.60;99.90;;;;;;5058792;28;20340;-75
2021/08/26 08:11:44;;;;;;;15.57;6.35;;;29.60;99.90;;;;;;5058610;28;20214;-76
2021/08/26 08:14:11;;;;;;;12.77;5.97;;;29.70;99.90;;;;;;5060010;28;20317;-76
2021/08/26 08:16:37;;;;;;;11.43;6.10;;;29.80;99.90;;;;;;5044057;28;20197;-73
2021/08/26 08:19:04;;;;;;;16.65;6.40;;;29.80;99.90;;;;;;5059779;28;20187;-76
2021/08/26 08:21:32;;;;;;;11.90;6.00;;;30.00;99.90;;;;;;5043793;28;20186;-71
2021/08/26 08:24:01;;;;;;;10.82;6.78;;;30.10;99.90;;;;;;5072685;28;20214;-75
2021/08/26 08:26:29;;;;;;;16.98;6.82;;;30.20;99.90;;;;;;5049331;28;20194;-74
2021/08/26 08:28:56;;;;;;;13.68;7.45;;;30.30;99.90;;;;;;5054986;28;20191;-73
2021/08/26 08:31:23;;;;;;;11.73;7.32;;;30.40;99.90;;;;;;5059736;28;20218;-72
2021/08/26 08:33:50;;;;;;;20.25;7.72;;;30.50;99.90;;;;;;5062150;28;20558;-74
2021/08/26 08:36:19;;;;;;;13.82;6.50;;;30.70;99.90;;;;;;5058150;28;20215;-74
2021/08/26 08:38:47;;;;;;;14.13;7.15;;;30.70;99.90;;;;;;5061529;28;20227;-73
2021/08/26 08:41:19;;;;;;;11.90;6.63;;;30.80;99.90;;;;;;5060558;28;20195;-73
2021/08/26 08:43:48;;;;;;;13.73;7.72;;;30.80;99.90;;;;;;5060924;28;20269;-75
2021/08/26 08:46:20;;;;;;;11.45;5.85;;;30.80;99.90;;;;;;5055787;28;20189;-75
2021/08/26 08:48:47;;;;;;;14.43;7.00;;;30.80;99.90;;;;;;5060246;28;20194;-73
2021/08/26 08:51:14;;;;;;;14.05;6.72;;;31.00;99.90;;;;;;5057125;28;20222;-73
2021/08/26 08:53:41;;;;;;;11.27;6.70;;;31.00;99.90;;;;;;5059326;28;20187;-74
2021/08/26 08:56:09;;;;;;;12.65;6.63;;;31.10;99.90;;;;;;5057336;28;22310;-73
2021/08/26 08:58:41;;;;;;;13.05;6.95;;;31.00;99.90;;;;;;5071709;28;20191;-76
2021/08/26 09:01:08;;;;;;;15.18;7.15;;;31.10;99.90;;;;;;5061799;28;20195;-73
2021/08/26 09:03:38;;;;;;;12.98;7.15;;;31.30;99.90;;;;;;5064052;28;20194;-75
2021/08/26 09:06:08;;;;;;;14.02;6.70;;;31.30;99.90;;;;;;5063049;28;20190;-75
2021/08/26 09:08:35;;;;;;;13.20;6.63;;;31.30;99.90;;;;;;5061073;28;20183;-72
2021/08/26 09:11:20;;;;;;;12.43;7.00;;;31.20;99.90;;;;;;5060635;28;20199;-76
2021/08/26 09:13:47;;;;;;;16.90;7.43;;;31.30;99.90;;;;;;5060033;28;20196;-73
2021/08/26 09:16:15;;;;;;;14.55;7.07;;;31.40;99.90;;;;;;5042755;28;20194;-74
2021/08/26 09:18:42;;;;;;;13.63;7.40;;;31.30;99.90;;;;;;5059005;28;20187;-73
2021/08/26 09:21:13;;;;;;;16.88;7.43;;;31.40;99.90;;;;;;5045695;28;20213;-72
2021/08/26 09:24:01;;;;;;;15.75;7.03;;;31.50;99.90;;;;;;5065133;28;20255;-72
2021/08/26 09:26:29;;;;;;;16.98;6.85;;;31.90;99.90;;;;;;5044504;28;20198;-75
2021/08/26 09:29:03;;;;;;;12.93;7.53;;;31.80;99.90;;;;;;5053702;28;20198;-75
2021/08/26 09:31:32;;;;;;;12.55;6.47;;;31.70;99.90;;;;;;5047584;28;20198;-73
2021/08/26 09:34:10;;;;;;;12.57;7.30;;;31.60;99.90;;;;;;5061553;28;20257;-73
2021/08/26 09:36:52;;;;;;;16.08;6.90;;;31.60;99.90;;;;;;5061853;28;20187;-73
2021/08/26 09:39:32;;;;;;;16.45;6.25;;;31.60;99.90;;;;;;5060922;28;20640;-74
2021/08/26 09:42:08;;;;;;;15.63;7.60;;;31.60;99.90;;;;;;5061142;28;20179;-74
2021/08/26 09:44:37;;;;;;;16.58;7.25;;;31.60;99.90;;;;;;5059846;28;20194;-72
2021/08/26 09:47:07;;;;;;;13.48;7.03;;;31.80;99.90;;;;;;5057172;28;20232;-74
2021/08/26 09:49:40;;;;;;;14.23;7.00;;;31.90;99.90;;;;;;5066035;28;20203;-75
2021/08/26 09:52:13;;;;;;;12.02;6.63;;;32.10;99.90;;;;;;5058795;28;20584;-75
2021/08/26 09:54:47;;;;;;;22.10;7.63;;;31.90;99.90;;;;;;5059522;28;20191;-72
2021/08/26 09:57:40;;;;;;;9.40;6.20;;;32.00;99.90;;;;;;5058682;28;20203;-74
2021/08/26 10:00:07;;;;;;;14.07;6.32;;;32.00;99.90;;;;;;5051113;28;20238;-72
2021/08/26 10:02:33;;;;;;;8.13;5.90;;;32.20;99.90;;;;;;5060455;28;20178;-76
2021/08/26 10:05:00;;;;;;;17.30;6.60;;;32.40;99.90;;;;;;5066053;28;20207;-75
2021/08/26 10:07:28;;;;;;;14.70;6.55;;;32.40;99.90;;;;;;5042920;28;20195;-73
2021/08/26 10:09:55;;;;;;;12.07;6.18;;;32.50;99.90;;;;;;5065334;28;21062;-72
2021/08/26 10:12:23;;;;;;;12.05;6.22;;;32.80;99.90;;;;;;5059055;28;20217;-74
2021/08/26 10:14:52;;;;;;;15.60;6.82;;;33.50;99.90;;;;;;5045530;28;20253;-76
2021/08/26 10:17:20;;;;;;;12.27;6.57;;;35.70;99.90;;;;;;5062364;28;20241;-72
2021/08/26 10:19:49;;;;;;;13.20;6.57;;;37.80;99.90;;;;;;5042907;28;20186;-74
2021/08/26 10:22:16;;;;;;;14.60;6.32;;;38.50;97.90;;;;;;5057202;28;20264;-74
2021/08/26 10:24:43;;;;;;;11.23;6.47;;;37.30;98.60;;;;;;5061949;28;20705;-73
2021/08/26 10:27:23;;;;;;;11.05;6.45;;;36.30;99.70;;;;;;5057505;28;20187;-74
2021/08/26 10:29:50;;;;;;;13.18;5.72;;;35.20;99.90;;;;;;5052151;28;20265;-73
2021/08/26 10:32:25;;;;;;;17.85;6.50;;;34.70;99.90;;;;;;5066518;28;20218;-74
2021/08/26 10:35:14;;;;;;;13.50;5.95;;;34.60;99.90;;;;;;5054424;28;20241;-75
2021/08/26 10:37:55;;;;;;;13.23;6.00;;;34.90;99.90;;;;;;5045519;28;20790;-73
2021/08/26 10:40:39;;;;;;;15.43;6.03;;;36.50;99.90;;;;;;5056695;28;20542;-74
2021/08/26 10:43:27;;;;;;;14.20;6.10;;;39.10;97.90;;;;;;5055079;28;20206;-72
2021/08/26 10:45:53;;;;;;;18.30;6.30;;;39.10;96.00;;;;;;5057369;28;20624;-74
2021/08/26 10:48:22;;;;;;;13.38;5.82;;;36.30;99.30;;;;;;5041109;28;20187;-73
2021/08/26 10:51:12;;;;;;;13.27;6.32;;;35.00;99.90;;;;;;5060738;28;20647;-73
2021/08/26 10:53:41;;;;;;;16.42;6.85;;;34.40;99.90;;;;;;5051254;28;20202;-74
2021/08/26 10:56:26;;;;;;;13.65;6.60;;;34.00;99.90;;;;;;5062151;28;20187;-73
2021/08/26 10:59:01;;;;;;;12.07;5.40;;;33.80;99.90;;;;;;5058855;28;20778;-72
2021/08/26 11:01:38;;;;;;;10.00;5.63;;;33.60;99.90;;;;;;5052083;28;20529;-74
2021/08/26 11:04:17;;;;;;;9.00;5.57;;;33.40;99.90;;;;;;5060022;28;20190;-74
2021/08/26 11:06:44;;;;;;;11.68;5.03;;;33.30;99.90;;;;;;5058208;28;20186;-74
2021/08/26 11:09:14;;;;;;;10.32;5.07;;;33.20;99.90;;;;;;5060379;28;20655;-74
2021/08/26 11:11:47;;;;;;;13.45;5.53;;;33.10;99.90;;;;;;5058972;28;20208;-74
2021/08/26 11:14:20;;;;;;;13.65;5.65;;;33.20;99.80;;;;;;5058108;28;20205;-72
2021/08/26 11:16:51;;;;;;;11.90;5.57;;;33.20;99.90;;;;;;5061416;28;20238;-72
2021/08/26 11:19:17;;;;;;;9.60;5.22;;;33.10;99.90;;;;;;5059218;28;20187;-75
2021/08/26 11:21:44;;;;;;;12.88;5.22;;;33.10;99.90;;;;;;5042132;28;20604;-74
2021/08/26 11:24:16;;;;;;;9.70;5.20;;;33.10;99.90;;;;;;5041889;28;20187;-74
2021/08/26 11:26:48;;;;;;;20.80;5.50;;;33.20;99.90;;;;;;5042953;28;20191;-73
2021/08/26 11:29:18;;;;;;;10.10;4.88;;;33.20;99.90;;;;;;5044646;28;20297;-73
2021/08/26 11:32:00;;;;;;;15.07;5.30;;;33.30;99.90;;;;;;5051903;28;20215;-72
2021/08/26 11:34:31;;;;;;;9.77;4.45;;;33.20;99.90;;;;;;5057549;28;20549;-74
2021/08/26 11:37:22;;;;;;;12.25;5.28;;;33.30;98.10;;;;;;5058756;28;20194;-73
2021/08/26 11:40:04;;;;;;;10.43;4.40;;;33.40;99.90;;;;;;5039612;28;20301;-73
2021/08/26 11:42:43;;;;;;;8.40;4.47;;;33.60;94.60;;;;;;5059365;28;20244;-73
2021/08/26 11:45:17;;;;;;;12.00;4.68;;;33.70;93.60;;;;;;5053907;28;20191;-73
2021/08/26 11:48:00;;;;;;;9.80;4.20;;;33.70;93.00;;;;;;5057001;28;20189;-73
2021/08/26 11:50:36;;;;;;;9.27;4.53;;;33.60;91.00;;;;;;5055993;28;20716;-74
2021/08/26 11:53:11;;;;;;;7.20;4.55;;;33.70;90.40;;;;;;5056091;28;20249;-71
2021/08/26 11:55:45;;;;;;;8.80;4.40;;;33.30;91.80;;;;;;5055903;28;20194;-73
2021/08/26 11:58:16;;;;;;;8.23;4.40;;;33.60;91.60;;;;;;5041012;28;20195;-72
2021/08/26 12:00:48;;;;;;;10.35;5.28;;;33.60;90.90;;;;;;5060160;28;20202;-74
2021/08/26 12:03:15;;;;;;;18.95;4.65;;;33.70;93.00;;;;;;5052318;28;20501;-74
2021/08/26 12:05:43;;;;;;;16.27;4.47;;;33.50;93.00;;;;;;5055899;28;20187;-76
2021/08/26 12:08:10;;;;;;;8.38;4.28;;;33.70;90.40;;;;;;5054530;28;20209;-75
2021/08/26 12:10:44;;;;;;;5.65;4.20;;;33.60;88.00;;;;;;5058377;28;20674;-75
2021/08/26 12:13:22;;;;;;;8.63;4.60;;;33.60;89.50;;;;;;5038176;28;20236;-74
2021/08/26 12:15:54;;;;;;;8.45;4.20;;;33.70;91.10;;;;;;5040052;28;20234;-75
2021/08/26 12:18:30;;;;;;;9.43;4.95;;;33.60;91.50;;;;;;5043827;28;20777;-73
2021/08/26 12:21:09;;;;;;;7.72;4.63;;;33.50;93.50;;;;;;5053685;28;20206;-74
2021/08/26 12:23:46;;;;;;;12.65;4.80;;;33.70;90.50;;;;;;5043280;28;20198;-73
2021/08/26 12:26:22;;;;;;;8.65;4.72;;;33.70;90.40;;;;;;5054755;28;20912;-76
2021/08/26 12:29:02;;;;;;;9.60;4.80;;;33.60;91.70;;;;;;5057356;28;20271;-73
2021/08/26 12:31:31;;;;;;;11.38;4.50;;;33.40;92.30;;;;;;5063623;28;20286;-74
2021/08/26 12:34:12;;;;;;;10.57;4.78;;;33.50;90.00;;;;;;5055473;28;20706;-73
2021/08/26 12:36:44;;;;;;;16.83;4.55;;;33.50;90.20;;;;;;5058073;28;20686;-75
2021/08/26 12:39:26;;;;;;;6.72;3.90;;;33.60;88.10;;;;;;5064347;28;20232;-74
2021/08/26 12:42:07;;;;;;;9.98;4.03;;;33.00;88.90;;;;;;5061170;28;20219;-75
2021/08/26 12:44:34;;;;;;;7.82;4.68;;;33.20;90.20;;;;;;5043964;28;20218;-73
2021/08/26 12:47:04;;;;;;;8.18;4.53;;;33.20;90.70;;;;;;5062507;28;20206;-77
2021/08/26 12:49:47;;;;;;;11.15;4.18;;;33.20;87.90;;;;;;5062583;28;20920;-76
2021/08/26 12:52:16;;;;;;;9.77;4.32;;;33.50;87.60;;;;;;5061017;28;20215;-73
2021/08/26 12:54:43;;;;;;;13.00;4.70;;;33.40;86.20;;;;;;5060617;28;20574;-76